sensor_id;sensor_type;location;lat;lon;timestamp;pressure;altitude;pressure_sealevel;temperature;humidity
15193;BME280;7697;51.630;7.484;2023-12-14T00:00:31;-17363.34;;;8.63;100.00
15193;BME280;7697;51.630;7.484;2023-12-14T00:05:34;-17363.66;;;8.64;100.00
15193;BME280;7697;51.630;7.484;2023-12-14T00:10:36;-17364.19;;;8.65;100.00
15193;BME280;7697;51.630;7.484;2023-12-14T00:15:38;-17364.50;;;8.67;100.00
15193;BME280;7697;51.630;7.484;2023-12-14T00:20:41;-17360.66;;;8.55;100.00
15193;BME280;7697;51.630;7.484;2023-12-14T00:25:43;-17358.97;;;8.50;100.00
15193;BME280;7697;51.630;7.484;2023-12-14T00:30:44;-17357.63;;;8.46;100.00
15193;BME280;7697;51.630;7.484;2023-12-14T00:35:47;-17357.81;;;8.46;100.00
15193;BME280;7697;51.630;7.484;2023-12-14T00:40:49;-17354.63;;;8.37;100.00
15193;BME280;7697;51.630;7.484;2023-12-14T00:45:51;-17348.91;;;8.19;100.00
15193;BME280;7697;51.630;7.484;2023-12-14T00:50:54;-17348.56;;;8.18;100.00
15193;BME280;7697;51.630;7.484;2023-12-14T00:55:56;-17348.56;;;8.18;100.00
15193;BME280;7697;51.630;7.484;2023-12-14T01:00:58;-17348.22;;;8.17;100.00
15193;BME280;7697;51.630;7.484;2023-12-14T01:06:01;-17346.22;;;8.11;100.00
15193;BME280;7697;51.630;7.484;2023-12-14T01:11:03;-17344.53;;;8.06;100.00
15193;BME280;7697;51.630;7.484;2023-12-14T01:16:05;-17344.22;;;8.05;100.00
15193;BME280;7697;51.630;7.484;2023-12-14T01:21:08;-17345.88;;;8.10;100.00
15193;BME280;7697;51.630;7.484;2023-12-14T01:26:10;-17344.53;;;8.06;100.00
15193;BME280;7697;51.630;7.484;2023-12-14T01:31:11;-17341.19;;;7.96;100.00
15193;BME280;7697;51.630;7.484;2023-12-14T01:36:21;-17340.03;;;7.93;100.00
15193;BME280;7697;51.630;7.484;2023-12-14T01:41:23;-17340.03;;;7.93;100.00
15193;BME280;7697;51.630;7.484;2023-12-14T01:46:24;-17340.84;;;7.95;100.00
15193;BME280;7697;51.630;7.484;2023-12-14T01:51:27;-17340.69;;;7.95;100.00
15193;BME280;7697;51.630;7.484;2023-12-14T01:56:29;-17338.50;;;7.88;100.00
15193;BME280;7697;51.630;7.484;2023-12-14T02:01:37;-17336.84;;;7.83;100.00
15193;BME280;7697;51.630;7.484;2023-12-14T02:12:22;-17329.63;;;7.61;100.00
15193;BME280;7697;51.630;7.484;2023-12-14T02:17:24;-17328.28;;;7.57;100.00
15193;BME280;7697;51.630;7.484;2023-12-14T02:22:26;-17325.09;;;7.47;100.00
15193;BME280;7697;51.630;7.484;2023-12-14T02:27:29;-17323.41;;;7.42;100.00
15193;BME280;7697;51.630;7.484;2023-12-14T02:32:31;-17321.91;;;7.38;100.00
15193;BME280;7697;51.630;7.484;2023-12-14T02:37:33;-17323.41;;;7.42;100.00
15193;BME280;7697;51.630;7.484;2023-12-14T02:42:38;-17326.28;;;7.51;100.00
15193;BME280;7697;51.630;7.484;2023-12-14T02:47:40;-17326.09;;;7.50;100.00
15193;BME280;7697;51.630;7.484;2023-12-14T02:52:42;-17324.94;;;7.47;100.00
15193;BME280;7697;51.630;7.484;2023-12-14T02:57:45;-17322.06;;;7.38;100.00
15193;BME280;7697;51.630;7.484;2023-12-14T03:02:46;-17324.09;;;7.44;100.00
15193;BME280;7697;51.630;7.484;2023-12-14T03:07:50;-17326.28;;;7.51;100.00
15193;BME280;7697;51.630;7.484;2023-12-14T03:12:53;-17321.56;;;7.37;100.00
15193;BME280;7697;51.630;7.484;2023-12-14T03:17:55;-17323.75;;;7.43;100.00
15193;BME280;7697;51.630;7.484;2023-12-14T03:22:57;-17323.25;;;7.42;100.00
15193;BME280;7697;51.630;7.484;2023-12-14T03:28:00;-17320.72;;;7.34;100.00
15193;BME280;7697;51.630;7.484;2023-12-14T03:33:02;-17321.41;;;7.36;100.00
15193;BME280;7697;51.630;7.484;2023-12-14T03:38:07;-17317.03;;;7.23;100.00
15193;BME280;7697;51.630;7.484;2023-12-14T03:43:10;-17317.22;;;7.24;100.00
15193;BME280;7697;51.630;7.484;2023-12-14T03:48:12;-17318.06;;;7.26;100.00
15193;BME280;7697;51.630;7.484;2023-12-14T03:53:14;-17321.06;;;7.35;100.00
15193;BME280;7697;51.630;7.484;2023-12-14T03:58:17;-17320.22;;;7.33;100.00
15193;BME280;7697;51.630;7.484;2023-12-14T04:03:18;-17315.53;;;7.19;100.00
15193;BME280;7697;51.630;7.484;2023-12-14T04:08:20;-17316.03;;;7.20;100.00
15193;BME280;7697;51.630;7.484;2023-12-14T04:13:23;-17315.03;;;7.17;100.00
15193;BME280;7697;51.630;7.484;2023-12-14T04:18:26;-17310.50;;;7.03;100.00
15193;BME280;7697;51.630;7.484;2023-12-14T04:23:28;-17313.19;;;7.11;100.00
15193;BME280;7697;51.630;7.484;2023-12-14T04:28:31;-17314.69;;;7.16;100.00
15193;BME280;7697;51.630;7.484;2023-12-14T04:33:33;-17315.19;;;7.18;100.00
15193;BME280;7697;51.630;7.484;2023-12-14T04:38:35;-17313.34;;;7.12;100.00
15193;BME280;7697;51.630;7.484;2023-12-14T04:43:38;-17312.34;;;7.09;100.00
15193;BME280;7697;51.630;7.484;2023-12-14T04:48:39;-17312.84;;;7.10;100.00
15193;BME280;7697;51.630;7.484;2023-12-14T04:53:41;-17310.69;;;7.04;100.00
15193;BME280;7697;51.630;7.484;2023-12-14T04:58:45;-17309.66;;;7.01;100.00
15193;BME280;7697;51.630;7.484;2023-12-14T05:03:47;-17310.84;;;7.04;100.00
15193;BME280;7697;51.630;7.484;2023-12-14T05:08:48;-17309.66;;;7.01;100.00
15193;BME280;7697;51.630;7.484;2023-12-14T05:13:51;-17311.34;;;7.06;100.00
15193;BME280;7697;51.630;7.484;2023-12-14T05:18:53;-17310.00;;;7.02;100.00
15193;BME280;7697;51.630;7.484;2023-12-14T05:23:55;-17308.31;;;6.97;100.00
15193;BME280;7697;51.630;7.484;2023-12-14T05:28:58;-17309.84;;;7.01;100.00
15193;BME280;7697;51.630;7.484;2023-12-14T05:34:00;-17306.66;;;6.92;100.00
15193;BME280;7697;51.630;7.484;2023-12-14T05:39:02;-17308.50;;;6.97;100.00
15193;BME280;7697;51.630;7.484;2023-12-14T05:44:06;-17309.50;;;7.00;100.00
15193;BME280;7697;51.630;7.484;2023-12-14T05:49:08;-17309.00;;;6.99;100.00
15193;BME280;7697;51.630;7.484;2023-12-14T05:54:09;-17309.00;;;6.99;100.00
15193;BME280;7697;51.630;7.484;2023-12-14T05:59:13;-17308.50;;;6.97;100.00
15193;BME280;7697;51.630;7.484;2023-12-14T06:04:14;-17309.00;;;6.99;100.00
15193;BME280;7697;51.630;7.484;2023-12-14T06:09:16;-17308.31;;;6.97;100.00
15193;BME280;7697;51.630;7.484;2023-12-14T06:14:23;-17307.66;;;6.95;100.00
15193;BME280;7697;51.630;7.484;2023-12-14T06:19:28;-17307.31;;;6.94;100.00
15193;BME280;7697;51.630;7.484;2023-12-14T06:24:30;-17306.47;;;6.91;100.00
15193;BME280;7697;51.630;7.484;2023-12-14T06:29:33;-17308.16;;;6.96;100.00
15193;BME280;7697;51.630;7.484;2023-12-14T06:34:34;-17307.66;;;6.95;100.00
15193;BME280;7697;51.630;7.484;2023-12-14T06:39:36;-17304.81;;;6.86;100.00
15193;BME280;7697;51.630;7.484;2023-12-14T06:44:40;-17301.78;;;6.77;100.00
15193;BME280;7697;51.630;7.484;2023-12-14T06:49:41;-17298.78;;;6.68;100.00
15193;BME280;7697;51.630;7.484;2023-12-14T06:54:43;-17301.63;;;6.76;100.00
15193;BME280;7697;51.630;7.484;2023-12-14T06:59:46;-17301.78;;;6.77;100.00
15193;BME280;7697;51.630;7.484;2023-12-14T07:04:48;-17304.97;;;6.87;100.00
15193;BME280;7697;51.630;7.484;2023-12-14T07:09:50;-17305.97;;;6.90;100.00
15193;BME280;7697;51.630;7.484;2023-12-14T07:14:53;-17302.28;;;6.78;100.00
15193;BME280;7697;51.630;7.484;2023-12-14T07:19:55;-17295.91;;;6.59;100.00
15193;BME280;7697;51.630;7.484;2023-12-14T07:24:56;-17294.75;;;6.56;100.00
15193;BME280;7697;51.630;7.484;2023-12-14T07:30:00;-17291.72;;;6.47;100.00
15193;BME280;7697;51.630;7.484;2023-12-14T07:35:01;-17291.88;;;6.47;100.00
15193;BME280;7697;51.630;7.484;2023-12-14T07:40:04;-17295.06;;;6.57;100.00
15193;BME280;7697;51.630;7.484;2023-12-14T07:45:09;-17296.09;;;6.60;100.00
15193;BME280;7697;51.630;7.484;2023-12-14T07:50:11;-17296.59;;;6.61;100.00
15193;BME280;7697;51.630;7.484;2023-12-14T07:55:12;-17292.91;;;6.50;100.00
15193;BME280;7697;51.630;7.484;2023-12-14T08:00:17;-17295.25;;;6.57;100.00
15193;BME280;7697;51.630;7.484;2023-12-14T08:05:19;-17290.72;;;6.44;100.00
15193;BME280;7697;51.630;7.484;2023-12-14T08:10:20;-17290.56;;;6.43;100.00
15193;BME280;7697;51.630;7.484;2023-12-14T08:15:24;-17288.38;;;6.36;100.00
15193;BME280;7697;51.630;7.484;2023-12-14T08:20:25;-17288.72;;;6.37;100.00
15193;BME280;7697;51.630;7.484;2023-12-14T08:25:27;-17291.22;;;6.45;100.00
15193;BME280;7697;51.630;7.484;2023-12-14T08:30:30;-17292.56;;;6.49;100.00
15193;BME280;7697;51.630;7.484;2023-12-14T08:35:32;-17294.06;;;6.54;100.00
15193;BME280;7697;51.630;7.484;2023-12-14T08:40:34;-17296.25;;;6.60;100.00
15193;BME280;7697;51.630;7.484;2023-12-14T08:45:37;-17298.25;;;6.66;100.00
15193;BME280;7697;51.630;7.484;2023-12-14T08:50:38;-17297.59;;;6.64;100.00
15193;BME280;7697;51.630;7.484;2023-12-14T08:55:40;-17294.56;;;6.55;100.00
15193;BME280;7697;51.630;7.484;2023-12-14T09:00:43;-17297.09;;;6.63;100.00
15193;BME280;7697;51.630;7.484;2023-12-14T09:05:46;-17294.56;;;6.55;100.00
15193;BME280;7697;51.630;7.484;2023-12-14T09:10:47;-17296.09;;;6.60;100.00
15193;BME280;7697;51.630;7.484;2023-12-14T09:15:51;-17299.78;;;6.71;100.00
15193;BME280;7697;51.630;7.484;2023-12-14T09:20:54;-17300.78;;;6.74;100.00
15193;BME280;7697;51.630;7.484;2023-12-14T09:25:56;-17296.75;;;6.62;100.00
15193;BME280;7697;51.630;7.484;2023-12-14T09:31:00;-17291.56;;;6.46;100.00
15193;BME280;7697;51.630;7.484;2023-12-14T09:36:03;-17286.88;;;6.32;100.00
15193;BME280;7697;51.630;7.484;2023-12-14T09:41:05;-17284.69;;;6.25;100.00
15193;BME280;7697;51.630;7.484;2023-12-14T09:46:09;-17287.53;;;6.34;100.00
15193;BME280;7697;51.630;7.484;2023-12-14T09:51:12;-17290.06;;;6.42;100.00
15193;BME280;7697;51.630;7.484;2023-12-14T09:56:14;-17291.38;;;6.46;100.00
15193;BME280;7697;51.630;7.484;2023-12-14T10:01:24;-17293.56;;;6.52;100.00
15193;BME280;7697;51.630;7.484;2023-12-14T10:06:26;-17292.22;;;6.48;100.00
15193;BME280;7697;51.630;7.484;2023-12-14T10:11:27;-17293.75;;;6.53;100.00
15193;BME280;7697;51.630;7.484;2023-12-14T10:16:32;-17294.25;;;6.54;100.00
15193;BME280;7697;51.630;7.484;2023-12-14T10:21:34;-17289.88;;;6.41;100.00
15193;BME280;7697;51.630;7.484;2023-12-14T10:26:36;-17290.22;;;6.42;100.00
15193;BME280;7697;51.630;7.484;2023-12-14T10:31:40;-17290.56;;;6.43;100.00
15193;BME280;7697;51.630;7.484;2023-12-14T10:36:45;-17294.25;;;6.54;100.00
15193;BME280;7697;51.630;7.484;2023-12-14T10:41:47;-17291.88;;;6.47;100.00
15193;BME280;7697;51.630;7.484;2023-12-14T10:46:53;-17292.56;;;6.49;100.00
15193;BME280;7697;51.630;7.484;2023-12-14T10:51:57;-17294.25;;;6.54;100.00
15193;BME280;7697;51.630;7.484;2023-12-14T10:57:00;-17293.25;;;6.51;100.00
15193;BME280;7697;51.630;7.484;2023-12-14T11:02:10;-17296.59;;;6.61;100.00
15193;BME280;7697;51.630;7.484;2023-12-14T11:07:15;-17299.28;;;6.69;100.00
15193;BME280;7697;51.630;7.484;2023-12-14T11:12:19;-17296.75;;;6.62;100.00
15193;BME280;7697;51.630;7.484;2023-12-14T11:17:24;-17297.44;;;6.64;100.00
15193;BME280;7697;51.630;7.484;2023-12-14T11:22:27;-17301.28;;;6.75;100.00
15193;BME280;7697;51.630;7.484;2023-12-14T11:27:30;-17297.25;;;6.63;100.00
15193;BME280;7697;51.630;7.484;2023-12-14T11:32:35;-17299.78;;;6.71;100.00
15193;BME280;7697;51.630;7.484;2023-12-14T11:37:36;-17303.28;;;6.82;100.00
15193;BME280;7697;51.630;7.484;2023-12-14T11:42:38;-17303.28;;;6.82;100.00
15193;BME280;7697;51.630;7.484;2023-12-14T11:47:42;-17305.31;;;6.88;100.00
15193;BME280;7697;51.630;7.484;2023-12-14T11:52:44;-17303.97;;;6.84;100.00
15193;BME280;7697;51.630;7.484;2023-12-14T11:57:46;-17302.97;;;6.81;100.00
15193;BME280;7697;51.630;7.484;2023-12-14T12:02:50;-17298.78;;;6.68;100.00
15193;BME280;7697;51.630;7.484;2023-12-14T12:07:57;-17297.59;;;6.64;100.00
15193;BME280;7697;51.630;7.484;2023-12-14T12:13:03;-17298.78;;;6.68;100.00
15193;BME280;7697;51.630;7.484;2023-12-14T12:18:08;-17297.25;;;6.63;100.00
15193;BME280;7697;51.630;7.484;2023-12-14T12:23:10;-17298.94;;;6.68;100.00
15193;BME280;7697;51.630;7.484;2023-12-14T12:28:12;-17297.25;;;6.63;100.00
15193;BME280;7697;51.630;7.484;2023-12-14T12:33:15;-17293.91;;;6.53;100.00
15193;BME280;7697;51.630;7.484;2023-12-14T12:38:17;-17295.59;;;6.58;100.00
15193;BME280;7697;51.630;7.484;2023-12-14T12:43:19;-17296.59;;;6.61;100.00
15193;BME280;7697;51.630;7.484;2023-12-14T12:48:22;-17295.91;;;6.59;100.00
15193;BME280;7697;51.630;7.484;2023-12-14T12:53:24;-17296.75;;;6.62;100.00
15193;BME280;7697;51.630;7.484;2023-12-14T12:58:29;-17296.91;;;6.62;100.00
15193;BME280;7697;51.630;7.484;2023-12-14T13:03:32;-17298.94;;;6.68;100.00
15193;BME280;7697;51.630;7.484;2023-12-14T13:08:34;-17301.63;;;6.76;100.00
15193;BME280;7697;51.630;7.484;2023-12-14T13:13:36;-17297.59;;;6.64;100.00
15193;BME280;7697;51.630;7.484;2023-12-14T13:18:39;-17299.94;;;6.71;100.00
15193;BME280;7697;51.630;7.484;2023-12-14T13:23:41;-17297.94;;;6.65;100.00
15193;BME280;7697;51.630;7.484;2023-12-14T13:28:44;-17300.09;;;6.72;100.00
15193;BME280;7697;51.630;7.484;2023-12-14T13:33:48;-17297.59;;;6.64;100.00
15193;BME280;7697;51.630;7.484;2023-12-14T13:38:50;-17299.09;;;6.69;100.00
15193;BME280;7697;51.630;7.484;2023-12-14T13:43:52;-17299.09;;;6.69;100.00
15193;BME280;7697;51.630;7.484;2023-12-14T13:48:55;-17299.59;;;6.70;100.00
15193;BME280;7697;51.630;7.484;2023-12-14T13:53:57;-17297.25;;;6.63;100.00
15193;BME280;7697;51.630;7.484;2023-12-14T13:58:59;-17295.25;;;6.57;100.00
15193;BME280;7697;51.630;7.484;2023-12-14T14:04:02;-17293.91;;;6.53;100.00
15193;BME280;7697;51.630;7.484;2023-12-14T14:09:04;-17290.88;;;6.44;100.00
15193;BME280;7697;51.630;7.484;2023-12-14T14:14:05;-17291.22;;;6.45;100.00
15193;BME280;7697;51.630;7.484;2023-12-14T14:19:08;-17292.22;;;6.48;100.00
15193;BME280;7697;51.630;7.484;2023-12-14T14:24:10;-17291.06;;;6.45;100.00
15193;BME280;7697;51.630;7.484;2023-12-14T14:29:12;-17288.88;;;6.38;100.00
15193;BME280;7697;51.630;7.484;2023-12-14T14:34:15;-17286.88;;;6.32;100.00
15193;BME280;7697;51.630;7.484;2023-12-14T14:39:17;-17286.69;;;6.31;100.00
15193;BME280;7697;51.630;7.484;2023-12-14T14:44:19;-17292.56;;;6.49;100.00
15193;BME280;7697;51.630;7.484;2023-12-14T14:49:54;-17291.06;;;6.45;100.00
15193;BME280;7697;51.630;7.484;2023-12-14T14:54:57;-17288.19;;;6.36;100.00
15193;BME280;7697;51.630;7.484;2023-12-14T14:59:59;-17289.53;;;6.40;100.00
15193;BME280;7697;51.630;7.484;2023-12-14T15:05:02;-17291.22;;;6.45;100.00
15193;BME280;7697;51.630;7.484;2023-12-14T15:10:05;-17289.22;;;6.39;100.00
15193;BME280;7697;51.630;7.484;2023-12-14T15:15:08;-17291.56;;;6.46;100.00
15193;BME280;7697;51.630;7.484;2023-12-14T15:20:11;-17289.88;;;6.41;100.00
15193;BME280;7697;51.630;7.484;2023-12-14T15:25:13;-17288.53;;;6.37;100.00
15193;BME280;7697;51.630;7.484;2023-12-14T15:30:17;-17287.38;;;6.33;100.00
15193;BME280;7697;51.630;7.484;2023-12-14T15:35:20;-17284.84;;;6.26;100.00
15193;BME280;7697;51.630;7.484;2023-12-14T15:40:22;-17284.69;;;6.25;100.00
15193;BME280;7697;51.630;7.484;2023-12-14T15:45:24;-17288.53;;;6.37;100.00
15193;BME280;7697;51.630;7.484;2023-12-14T15:50:29;-17290.56;;;6.43;100.00
15193;BME280;7697;51.630;7.484;2023-12-14T15:55:31;-17289.22;;;6.39;100.00
15193;BME280;7697;51.630;7.484;2023-12-14T16:00:33;-17291.72;;;6.47;100.00
15193;BME280;7697;51.630;7.484;2023-12-14T16:05:36;-17292.22;;;6.48;100.00
15193;BME280;7697;51.630;7.484;2023-12-14T16:10:39;-17290.38;;;6.43;100.00
15193;BME280;7697;51.630;7.484;2023-12-14T16:15:41;-17290.88;;;6.44;100.00
15193;BME280;7697;51.630;7.484;2023-12-14T16:20:44;-17289.53;;;6.40;100.00
15193;BME280;7697;51.630;7.484;2023-12-14T16:25:48;-17289.38;;;6.39;100.00
15193;BME280;7697;51.630;7.484;2023-12-14T16:30:49;-17290.56;;;6.43;100.00
15193;BME280;7697;51.630;7.484;2023-12-14T16:35:53;-17290.56;;;6.43;100.00
15193;BME280;7697;51.630;7.484;2023-12-14T16:40:54;-17290.88;;;6.44;100.00
15193;BME280;7697;51.630;7.484;2023-12-14T16:45:57;-17289.53;;;6.40;100.00
15193;BME280;7697;51.630;7.484;2023-12-14T16:51:03;-17289.88;;;6.41;100.00
15193;BME280;7697;51.630;7.484;2023-12-14T16:56:05;-17288.38;;;6.36;100.00
15193;BME280;7697;51.630;7.484;2023-12-14T17:01:08;-17288.03;;;6.35;100.00
15193;BME280;7697;51.630;7.484;2023-12-14T17:06:16;-17286.03;;;6.29;100.00
15193;BME280;7697;51.630;7.484;2023-12-14T17:11:18;-17284.53;;;6.25;100.00
15193;BME280;7697;51.630;7.484;2023-12-14T17:16:21;-17288.88;;;6.38;100.00
15193;BME280;7697;51.630;7.484;2023-12-14T17:21:25;-17287.69;;;6.34;100.00
15193;BME280;7697;51.630;7.484;2023-12-14T17:26:27;-17287.19;;;6.33;100.00
15193;BME280;7697;51.630;7.484;2023-12-14T17:31:29;-17287.69;;;6.34;100.00
15193;BME280;7697;51.630;7.484;2023-12-14T17:36:32;-17289.38;;;6.39;100.00
15193;BME280;7697;51.630;7.484;2023-12-14T17:41:33;-17289.53;;;6.40;100.00
15193;BME280;7697;51.630;7.484;2023-12-14T17:46:35;-17288.03;;;6.35;100.00
15193;BME280;7697;51.630;7.484;2023-12-14T17:51:41;-17285.19;;;6.27;100.00
15193;BME280;7697;51.630;7.484;2023-12-14T17:56:43;-17286.19;;;6.30;100.00
15193;BME280;7697;51.630;7.484;2023-12-14T18:01:45;-17286.88;;;6.32;100.00
15193;BME280;7697;51.630;7.484;2023-12-14T18:06:49;-17288.72;;;6.37;100.00
15193;BME280;7697;51.630;7.484;2023-12-14T18:11:51;-17289.88;;;6.41;100.00
15193;BME280;7697;51.630;7.484;2023-12-14T18:16:53;-17285.69;;;6.28;100.00
15193;BME280;7697;51.630;7.484;2023-12-14T18:21:56;-17287.03;;;6.32;100.00
15193;BME280;7697;51.630;7.484;2023-12-14T18:26:58;-17287.03;;;6.32;100.00
15193;BME280;7697;51.630;7.484;2023-12-14T18:32:00;-17287.88;;;6.35;100.00
15193;BME280;7697;51.630;7.484;2023-12-14T18:37:03;-17285.84;;;6.29;100.00
15193;BME280;7697;51.630;7.484;2023-12-14T18:42:05;-17288.19;;;6.36;100.00
15193;BME280;7697;51.630;7.484;2023-12-14T18:47:07;-17288.88;;;6.38;100.00
15193;BME280;7697;51.630;7.484;2023-12-14T18:52:11;-17286.19;;;6.30;100.00
15193;BME280;7697;51.630;7.484;2023-12-14T18:57:13;-17285.84;;;6.29;100.00
15193;BME280;7697;51.630;7.484;2023-12-14T19:02:15;-17285.00;;;6.26;100.00
15193;BME280;7697;51.630;7.484;2023-12-14T19:07:18;-17284.00;;;6.23;100.00
15193;BME280;7697;51.630;7.484;2023-12-14T19:12:20;-17283.84;;;6.23;100.00
15193;BME280;7697;51.630;7.484;2023-12-14T19:17:22;-17280.66;;;6.13;100.00
15193;BME280;7697;51.630;7.484;2023-12-14T19:22:27;-17276.97;;;6.02;100.00
15193;BME280;7697;51.630;7.484;2023-12-14T19:27:29;-17274.13;;;5.93;100.00
15193;BME280;7697;51.630;7.484;2023-12-14T19:32:32;-17270.41;;;5.82;100.00
15193;BME280;7697;51.630;7.484;2023-12-14T19:37:35;-17267.91;;;5.75;100.00
15193;BME280;7697;51.630;7.484;2023-12-14T19:42:37;-17262.38;;;5.58;100.00
15193;BME280;7697;51.630;7.484;2023-12-14T19:47:39;-17260.19;;;5.51;100.00
15193;BME280;7697;51.630;7.484;2023-12-14T19:52:42;-17253.81;;;5.32;100.00
15193;BME280;7697;51.630;7.484;2023-12-14T19:57:43;-17251.31;;;5.24;100.00
15193;BME280;7697;51.630;7.484;2023-12-14T20:02:50;-17252.16;;;5.27;100.00
15193;BME280;7697;51.630;7.484;2023-12-14T20:07:53;-17251.16;;;5.24;100.00
15193;BME280;7697;51.630;7.484;2023-12-14T20:12:55;-17249.97;;;5.20;100.00
15193;BME280;7697;51.630;7.484;2023-12-14T20:17:56;-17248.97;;;5.17;100.00
15193;BME280;7697;51.630;7.484;2023-12-14T20:23:00;-17246.44;;;5.10;100.00
15193;BME280;7697;51.630;7.484;2023-12-14T20:28:02;-17242.59;;;4.98;100.00
15193;BME280;7697;51.630;7.484;2023-12-14T20:33:03;-17241.59;;;4.95;100.00
15193;BME280;7697;51.630;7.484;2023-12-14T20:38:07;-17239.59;;;4.89;100.00
15193;BME280;7697;51.630;7.484;2023-12-14T20:43:08;-17242.09;;;4.97;100.00
15193;BME280;7697;51.630;7.484;2023-12-14T20:48:10;-17242.59;;;4.98;100.00
15193;BME280;7697;51.630;7.484;2023-12-14T20:53:14;-17241.41;;;4.95;100.00
15193;BME280;7697;51.630;7.484;2023-12-14T20:58:16;-17243.28;;;5.00;100.00
15193;BME280;7697;51.630;7.484;2023-12-14T21:03:18;-17245.63;;;5.07;100.00
15193;BME280;7697;51.630;7.484;2023-12-14T21:08:21;-17246.13;;;5.09;100.00
15193;BME280;7697;51.630;7.484;2023-12-14T21:13:23;-17247.28;;;5.12;100.00
15193;BME280;7697;51.630;7.484;2023-12-14T21:18:24;-17245.09;;;5.06;100.00
15193;BME280;7697;51.630;7.484;2023-12-14T21:23:28;-17251.66;;;5.25;100.00
15193;BME280;7697;51.630;7.484;2023-12-14T21:28:30;-17250.63;;;5.22;100.00
15193;BME280;7697;51.630;7.484;2023-12-14T21:33:32;-17254.00;;;5.33;100.00
15193;BME280;7697;51.630;7.484;2023-12-14T21:38:35;-17255.34;;;5.37;100.00
15193;BME280;7697;51.630;7.484;2023-12-14T21:43:37;-17255.84;;;5.38;100.00
15193;BME280;7697;51.630;7.484;2023-12-14T21:48:38;-17255.50;;;5.37;100.00
15193;BME280;7697;51.630;7.484;2023-12-14T21:53:41;-17256.19;;;5.39;100.00
15193;BME280;7697;51.630;7.484;2023-12-14T21:58:43;-17258.03;;;5.45;100.00
15193;BME280;7697;51.630;7.484;2023-12-14T22:03:45;-17259.53;;;5.49;100.00
15193;BME280;7697;51.630;7.484;2023-12-14T22:08:48;-17256.50;;;5.40;100.00
15193;BME280;7697;51.630;7.484;2023-12-14T22:13:50;-17259.69;;;5.50;100.00
15193;BME280;7697;51.630;7.484;2023-12-14T22:18:51;-17260.19;;;5.51;100.00
15193;BME280;7697;51.630;7.484;2023-12-14T22:23:55;-17263.38;;;5.61;100.00
15193;BME280;7697;51.630;7.484;2023-12-14T22:28:56;-17264.06;;;5.63;100.00
15193;BME280;7697;51.630;7.484;2023-12-14T22:33:58;-17262.88;;;5.59;100.00
15193;BME280;7697;51.630;7.484;2023-12-14T22:39:02;-17261.22;;;5.54;100.00
15193;BME280;7697;51.630;7.484;2023-12-14T22:44:04;-17263.06;;;5.60;100.00
15193;BME280;7697;51.630;7.484;2023-12-14T22:49:06;-17263.38;;;5.61;100.00
15193;BME280;7697;51.630;7.484;2023-12-14T22:54:10;-17264.06;;;5.63;100.00
15193;BME280;7697;51.630;7.484;2023-12-14T22:59:12;-17263.72;;;5.62;100.00
15193;BME280;7697;51.630;7.484;2023-12-14T23:04:13;-17266.22;;;5.70;100.00
15193;BME280;7697;51.630;7.484;2023-12-14T23:09:17;-17264.72;;;5.65;100.00
15193;BME280;7697;51.630;7.484;2023-12-14T23:14:18;-17266.06;;;5.69;100.00
15193;BME280;7697;51.630;7.484;2023-12-14T23:19:20;-17268.75;;;5.77;100.00
15193;BME280;7697;51.630;7.484;2023-12-14T23:24:23;-17265.56;;;5.68;100.00
15193;BME280;7697;51.630;7.484;2023-12-14T23:29:25;-17265.56;;;5.68;100.00
15193;BME280;7697;51.630;7.484;2023-12-14T23:34:27;-17267.41;;;5.73;100.00
15193;BME280;7697;51.630;7.484;2023-12-14T23:39:30;-17265.41;;;5.67;100.00
15193;BME280;7697;51.630;7.484;2023-12-14T23:44:32;-17265.41;;;5.67;100.00
15193;BME280;7697;51.630;7.484;2023-12-14T23:49:33;-17265.72;;;5.68;100.00
15193;BME280;7697;51.630;7.484;2023-12-14T23:54:36;-17262.72;;;5.59;100.00
15193;BME280;7697;51.630;7.484;2023-12-14T23:59:38;-17263.88;;;5.62;100.00
